createdAt,value
2019-04-01T00:00:53.383Z,77.89
2019-04-01T00:02:03.331Z,76.86
2019-04-01T00:03:13.282Z,76.95
2019-04-01T00:04:22.976Z,77.33
2019-04-01T00:05:32.682Z,77.23
2019-04-01T00:06:42.369Z,77.23
2019-04-01T00:07:52.053Z,77.7
2019-04-01T00:09:01.738Z,78.05
2019-04-01T00:10:11.753Z,78.56
2019-04-01T00:11:21.195Z,78.27
2019-04-01T00:12:31.137Z,78.46
2019-04-01T00:13:41.080Z,77.89
2019-04-01T00:14:50.851Z,78.23
2019-04-01T00:16:00.802Z,78.8
2019-04-01T00:17:10.494Z,79.47
2019-04-01T00:18:20.178Z,79.37
2019-04-01T00:19:30.119Z,78.52
2019-04-01T00:20:39.802Z,79.28
2019-04-01T00:21:49.751Z,79.85
2019-04-01T00:22:59.934Z,79.56
2019-04-01T00:24:10.706Z,79.37
2019-04-01T00:25:20.389Z,78.9
2019-04-01T00:26:29.937Z,79.47
2019-04-01T00:27:39.898Z,80.13
2019-04-01T00:28:49.828Z,79.94
2019-04-01T00:29:59.794Z,80.32
2019-04-01T00:31:09.732Z,80.79
2019-04-01T00:32:19.169Z,80.69
2019-04-01T00:33:28.600Z,80.79
2019-04-01T00:34:38.617Z,80.6
2019-04-01T00:35:48.313Z,80.51
2019-04-01T00:36:58.001Z,81.26
2019-04-01T00:38:07.447Z,81.07
2019-04-01T00:39:17.128Z,81.45
2019-04-01T00:40:26.885Z,81.83
2019-04-01T00:41:36.588Z,82.02
2019-04-01T00:42:46.541Z,82.4
2019-04-01T00:43:56.475Z,82.68
2019-04-01T00:45:06.151Z,82.5
2019-04-01T00:46:15.828Z,82.12
2019-04-01T00:47:25.820Z,81.26
2019-04-01T00:48:35.769Z,82.02
2019-04-01T00:49:45.553Z,82.31
2019-04-01T00:50:55.507Z,82.59
2019-04-01T00:52:05.432Z,82.68
2019-04-01T00:53:17.929Z,83.15
2019-04-01T00:54:27.776Z,82.97
2019-04-01T00:55:37.719Z,82.87
2019-04-01T00:56:47.645Z,83.25
2019-04-01T00:57:57.082Z,83.15
2019-04-01T00:59:06.536Z,83.06
2019-04-01T01:00:16.236Z,82.97
2019-04-01T01:01:26.173Z,83.63
2019-04-01T01:02:35.882Z,83.06
2019-04-01T01:03:45.859Z,83.11
2019-04-01T01:04:55.050Z,83.53
2019-04-01T01:06:04.993Z,83.49
2019-04-01T01:07:14.687Z,84.01
2019-04-01T01:08:24.378Z,84.01
2019-04-01T01:09:34.518Z,83.68
2019-04-01T01:10:44.458Z,83.59
2019-04-01T01:11:54.135Z,83.59
2019-04-01T01:13:04.087Z,83.78
2019-04-01T01:14:14.021Z,84.53
2019-04-01T01:15:23.723Z,85
2019-04-01T01:16:33.663Z,84.72
2019-04-01T01:17:43.606Z,84.44
2019-04-01T01:18:52.798Z,84.34
2019-04-01T01:20:02.671Z,84.72
2019-04-01T01:21:12.358Z,85.1
2019-04-01T01:22:22.053Z,85.76
2019-04-01T01:23:31.995Z,85.57
2019-04-01T01:24:41.953Z,85.95
2019-04-01T01:25:51.647Z,86.04
2019-04-01T01:27:01.332Z,85.95
2019-04-01T01:28:11.279Z,86.42
2019-04-01T01:29:21.236Z,85.85
2019-04-01T01:30:31.172Z,86.04
2019-04-01T01:31:40.872Z,86.14
2019-04-01T01:32:50.557Z,86.42
2019-04-01T01:34:00.486Z,86.8
2019-04-01T01:35:10.450Z,86.9
2019-04-01T01:36:20.388Z,86.9
2019-04-01T01:37:30.326Z,86.9
2019-04-01T01:38:40.273Z,86.8
2019-04-01T01:39:49.724Z,87.46
2019-04-01T01:40:59.157Z,87.27
2019-04-01T01:42:09.088Z,87.46
2019-04-01T01:43:19.026Z,87.55
2019-04-01T01:44:28.966Z,87.84
2019-04-01T01:45:38.414Z,87.84
2019-04-01T01:46:48.346Z,87.65
2019-04-01T01:47:58.294Z,87.84
2019-04-01T01:49:07.739Z,87.55
2019-04-01T01:50:17.674Z,88.03
2019-04-01T01:51:27.344Z,88.31
2019-04-01T01:52:37.038Z,88.84
2019-04-01T01:53:46.981Z,89.03
2019-04-01T01:54:56.676Z,88.55
2019-04-01T01:56:06.409Z,88.17
2019-04-01T01:57:16.352Z,88.84
2019-04-01T01:58:26.038Z,88.65
2019-04-01T01:59:35.220Z,88.55
2019-04-01T02:00:44.907Z,88.74
2019-04-01T02:01:54.856Z,88.74
2019-04-01T02:03:04.805Z,88.93
2019-04-01T02:04:14.243Z,89.5
2019-04-01T02:05:24.204Z,89.22
2019-04-01T02:06:33.880Z,89.03
2019-04-01T02:07:43.614Z,88.84
2019-04-01T02:08:53.315Z,89.4
2019-04-01T02:10:03.259Z,89.78
2019-04-01T02:11:13.219Z,89.69
2019-04-01T02:12:23.163Z,90.35
2019-04-01T02:13:33.104Z,90.44
2019-04-01T02:14:43.152Z,90.63
2019-04-01T02:15:52.829Z,90.54
2019-04-01T02:17:02.525Z,90.82
2019-04-01T02:18:12.465Z,90.54
2019-04-01T02:19:22.151Z,90.54
2019-04-01T02:20:31.574Z,90.73
2019-04-01T02:21:41.270Z,90.63
2019-04-01T02:22:50.706Z,90.35
2019-04-01T02:24:00.393Z,90.63
2019-04-01T02:25:10.083Z,90.73
2019-04-01T02:26:19.509Z,90.82
2019-04-01T02:27:29.442Z,91.01
2019-04-01T02:28:39.183Z,91.01
2019-04-01T02:29:48.871Z,91.01
2019-04-01T02:30:58.695Z,91.01
2019-04-01T02:32:08.685Z,90.82
2019-04-01T02:33:18.649Z,90.91
2019-04-01T02:34:28.599Z,90.91
2019-04-01T02:35:38.582Z,90.54
2019-04-01T02:36:48.419Z,91.58
2019-04-01T02:37:58.376Z,91.48
2019-04-01T02:39:08.109Z,91.67
2019-04-01T02:40:21.675Z,91.39
2019-04-01T02:41:31.716Z,91.86
2019-04-01T02:42:41.665Z,91.96
2019-04-01T02:43:51.145Z,92.05
2019-04-01T02:45:00.920Z,92.05
2019-04-01T02:46:10.915Z,92.14
2019-04-01T02:47:20.889Z,92.05
2019-04-01T02:48:30.739Z,92.43
2019-04-01T02:49:40.730Z,92.43
2019-04-01T02:50:50.734Z,92.33
2019-04-01T02:52:00.666Z,92.61
2019-04-01T02:53:10.632Z,92.57
2019-04-01T02:54:20.584Z,93.89
2019-04-01T02:55:30.543Z,93.42
2019-04-01T02:56:40.246Z,93.13
2019-04-01T02:57:50.189Z,93.23
2019-04-01T02:58:59.919Z,93.8
2019-04-01T03:00:09.427Z,94.74
2019-04-01T03:01:19.129Z,95.21
2019-04-01T03:02:29.232Z,95.59
2019-04-01T03:03:39.192Z,95.31
2019-04-01T03:04:49.140Z,94.65
2019-04-01T03:05:59.099Z,94.84
2019-04-01T03:07:08.840Z,94.7
2019-04-01T03:08:18.793Z,93.99
2019-04-01T03:09:28.750Z,94.18
2019-04-01T03:10:38.699Z,94.56
2019-04-01T03:11:48.672Z,94.46
2019-04-01T03:12:58.651Z,93.8
2019-04-01T03:14:08.364Z,94.65
2019-04-01T03:15:18.061Z,94.46
2019-04-01T03:16:27.870Z,94.74
2019-04-01T03:17:37.867Z,95.03
2019-04-01T03:18:47.875Z,95.03
2019-04-01T03:19:57.914Z,95.21
2019-04-01T03:21:08.350Z,94.74
2019-04-01T03:22:18.352Z,95.21
2019-04-01T03:23:28.316Z,95.12
2019-04-01T03:24:38.055Z,95.4
2019-04-01T03:25:47.553Z,95.5
2019-04-01T03:26:57.537Z,95.12
2019-04-01T03:28:07.467Z,95.59
2019-04-01T03:29:17.398Z,95.21
2019-04-01T03:30:27.509Z,95.5
2019-04-01T03:31:37.319Z,95.5
2019-04-01T03:32:48.091Z,95.4
2019-04-01T03:33:58.057Z,95.21
2019-04-01T03:35:08.060Z,95.5
2019-04-01T03:36:17.785Z,95.5
2019-04-01T03:37:27.497Z,96.25
2019-04-01T03:38:37.440Z,96.44
2019-04-01T03:39:47.407Z,96.06
2019-04-01T03:40:57.378Z,96.06
2019-04-01T03:42:07.069Z,96.35
2019-04-01T03:43:16.798Z,96.91
2019-04-01T03:44:26.513Z,96.73
2019-04-01T03:45:36.449Z,97.1
2019-04-01T03:46:46.386Z,98.24
2019-04-01T03:47:56.338Z,98.33
2019-04-01T03:49:06.530Z,97.77
2019-04-01T03:50:16.635Z,98.14
2019-04-01T03:51:26.589Z,97.39
2019-04-01T03:52:36.032Z,97.29
2019-04-01T03:53:45.998Z,97.39
2019-04-01T03:54:55.446Z,96.73
2019-04-01T03:56:05.699Z,97.29
2019-04-01T03:57:15.688Z,97.2
2019-04-01T03:58:25.641Z,97.58
2019-04-01T03:59:35.583Z,98.05
2019-04-01T04:00:45.309Z,97.86
2019-04-01T04:01:55.003Z,97.96
2019-04-01T04:03:04.788Z,98.71
2019-04-01T04:04:14.878Z,98.71
2019-04-01T04:05:24.575Z,98.8
2019-04-01T04:06:34.263Z,99.99
2019-04-01T04:07:44.194Z,99.99
2019-04-01T04:08:53.905Z,99.99
2019-04-01T04:10:07.370Z,99.27
2019-04-01T04:11:17.451Z,99.65
2019-04-01T04:12:27.427Z,99.18
2019-04-01T04:13:36.667Z,98.71
2019-04-01T04:14:50.846Z,98.9
2019-04-01T04:16:01.094Z,98.99
2019-04-01T04:17:11.051Z,99.46
2019-04-01T04:18:20.985Z,98.61
2019-04-01T04:19:30.702Z,98.8
2019-04-01T04:20:40.215Z,99.37
2019-04-01T04:21:50.207Z,99.56
2019-04-01T04:23:00.278Z,98.9
2019-04-01T04:24:10.243Z,99.08
2019-04-01T04:25:20.213Z,98.9
2019-04-01T04:26:29.905Z,98.9
2019-04-01T04:27:39.877Z,98.71
2019-04-01T04:28:49.573Z,98.61
2019-04-01T04:29:59.284Z,98.9
2019-04-01T04:31:09.259Z,98.61
2019-04-01T04:32:18.947Z,98.99
2019-04-01T04:33:28.965Z,99.32
2019-04-01T04:34:38.959Z,99.32
2019-04-01T04:35:49.009Z,99.32
2019-04-01T04:36:58.958Z,98.94
2019-04-01T04:38:08.938Z,99.13
2019-04-01T04:39:18.631Z,99.22
2019-04-01T04:40:28.331Z,99.99
2019-04-01T04:41:38.302Z,99.79
2019-04-01T04:42:48.271Z,99.99
2019-04-01T04:43:58.243Z,99.99
2019-04-01T04:45:08.434Z,99.99
2019-04-01T04:46:20.967Z,99.99
2019-04-01T04:47:31.204Z,99.99
2019-04-01T04:48:41.148Z,99.99
2019-04-01T04:49:51.109Z,99.99
2019-04-01T04:51:01.064Z,99.99
2019-04-01T04:52:10.754Z,99.99
2019-04-01T04:53:20.443Z,99.99
2019-04-01T04:54:30.135Z,99.99
2019-04-01T04:55:40.085Z,99.99
2019-04-01T04:56:49.761Z,99.99
2019-04-01T04:57:59.437Z,99.99
2019-04-01T04:59:09.393Z,99.99
2019-04-01T05:00:19.358Z,99.99
2019-04-01T05:01:29.068Z,99.99
2019-04-01T05:02:39.010Z,99.99
2019-04-01T05:03:48.979Z,99.99
2019-04-01T05:04:59.152Z,99.99
2019-04-01T05:06:08.854Z,99.99
2019-04-01T05:07:18.816Z,99.99
2019-04-01T05:08:28.773Z,99.99
2019-04-01T05:09:38.710Z,99.99
2019-04-01T05:10:48.654Z,99.99
2019-04-01T05:11:58.339Z,99.99
2019-04-01T05:13:08.274Z,99.99
2019-04-01T05:14:17.969Z,99.99
2019-04-01T05:15:27.420Z,99.99
2019-04-01T05:16:37.359Z,99.99
2019-04-01T05:17:47.033Z,99.99
2019-04-01T05:18:56.982Z,99.99
2019-04-01T05:20:06.665Z,99.99
2019-04-01T05:21:19.476Z,99.99
2019-04-01T05:22:29.414Z,99.99
2019-04-01T05:23:39.086Z,99.99
2019-04-01T05:24:48.543Z,99.99
2019-04-01T05:25:58.478Z,99.99
2019-04-01T05:27:08.418Z,99.99
2019-04-01T05:28:18.360Z,99.99
2019-04-01T05:29:28.322Z,99.99
2019-04-01T05:30:38.250Z,99.99
2019-04-01T05:31:48.204Z,99.99
2019-04-01T05:32:57.886Z,99.99
2019-04-01T05:34:07.566Z,99.99
2019-04-01T05:35:16.754Z,99.99
2019-04-01T05:36:26.450Z,99.99
2019-04-01T05:37:35.890Z,99.99
2019-04-01T05:38:45.825Z,99.99
2019-04-01T05:39:55.517Z,99.99
2019-04-01T05:41:05.569Z,99.99
2019-04-01T05:42:15.533Z,99.99
2019-04-01T05:43:25.503Z,99.99
2019-04-01T05:44:35.447Z,99.99
2019-04-01T05:45:44.898Z,99.99
2019-04-01T05:46:54.865Z,99.99
2019-04-01T05:48:04.556Z,99.99
2019-04-01T05:49:14.514Z,99.99
2019-04-01T05:50:23.961Z,99.99
2019-04-01T05:51:33.651Z,99.99
2019-04-01T05:52:43.331Z,99.99
2019-04-01T05:53:53.018Z,99.99
2019-04-01T05:55:02.859Z,99.99
2019-04-01T05:56:16.473Z,99.99
2019-04-01T05:57:26.421Z,99.99
2019-04-01T05:58:36.391Z,99.99
2019-04-01T05:59:46.394Z,99.99
2019-04-01T06:00:55.843Z,99.99
2019-04-01T06:02:05.541Z,99.99
2019-04-01T06:03:15.264Z,99.99
2019-04-01T06:04:24.950Z,99.99
2019-04-01T06:05:34.901Z,99.99
2019-04-01T06:06:44.856Z,99.99
2019-04-01T06:07:56.478Z,99.99
2019-04-01T06:09:06.179Z,99.99
2019-04-01T06:10:16.131Z,99.99
2019-04-01T06:11:25.582Z,99.99
2019-04-01T06:12:35.511Z,99.99
2019-04-01T06:13:44.957Z,99.99
2019-04-01T06:14:54.906Z,99.99
2019-04-01T06:16:04.693Z,99.99
2019-04-01T06:17:14.160Z,99.99
2019-04-01T06:18:23.875Z,99.99
2019-04-01T06:19:33.847Z,99.99
2019-04-01T06:20:43.838Z,99.99
2019-04-01T06:21:53.573Z,99.99
2019-04-01T06:23:03.503Z,99.99
2019-04-01T06:24:13.192Z,99.99
2019-04-01T06:25:22.875Z,99.99
2019-04-01T06:26:32.854Z,99.95
2019-04-01T06:27:42.802Z,99.66
2019-04-01T06:28:52.573Z,99.19
2019-04-01T06:30:02.785Z,99.76
2019-04-01T06:31:12.485Z,99.66
2019-04-01T06:32:22.173Z,99.47
2019-04-01T06:33:31.633Z,99.38
2019-04-01T06:34:54.713Z,98.9
2019-04-01T06:36:04.402Z,98.9
2019-04-01T06:37:14.369Z,98.9
2019-04-01T06:38:24.486Z,99.38
2019-04-01T06:39:34.200Z,98.9
2019-04-01T06:40:44.137Z,98.33
2019-04-01T06:41:54.085Z,97.49
2019-04-01T06:43:04.039Z,97.39
2019-04-01T06:44:13.485Z,97.39
2019-04-01T06:45:23.427Z,97.3
2019-04-01T06:46:33.363Z,97.16
2019-04-01T06:47:43.314Z,96.4
2019-04-01T06:48:53.266Z,96.02
2019-04-01T06:50:03.206Z,95.83
2019-04-01T06:51:12.897Z,95.36
2019-04-01T06:52:22.734Z,94.79
2019-04-01T06:53:32.417Z,94.6
2019-04-01T06:54:42.164Z,93.85
2019-04-01T06:55:51.858Z,93.37
2019-04-01T06:57:01.553Z,93.18
2019-04-01T06:58:14.267Z,92.24
2019-04-01T06:59:24.211Z,91.86
2019-04-01T07:00:34.397Z,90.86
2019-04-01T07:01:44.071Z,90.11
2019-04-01T07:02:54.016Z,89.54
2019-04-01T07:04:03.971Z,89.92
2019-04-01T07:05:15.221Z,89.35
2019-04-01T07:06:24.912Z,88.31
2019-04-01T07:07:34.628Z,87.84
2019-04-01T07:08:44.087Z,88.12
2019-04-01T07:09:54.076Z,87.17
2019-04-01T07:11:03.562Z,86.98
2019-04-01T07:12:13.498Z,86.51
2019-04-01T07:13:23.197Z,86.51
2019-04-01T07:14:33.137Z,86.13
2019-04-01T07:15:43.087Z,85.85
2019-04-01T07:16:53.031Z,85.89
2019-04-01T07:18:02.995Z,86.08
2019-04-01T07:19:12.962Z,85.32
2019-04-01T07:20:22.413Z,84.47
2019-04-01T07:21:32.371Z,83.9
2019-04-01T07:22:42.341Z,84.75
2019-04-01T07:23:52.049Z,84.47
2019-04-01T07:25:02.000Z,84.19
2019-04-01T07:26:11.442Z,83.62
2019-04-01T07:27:21.396Z,83.14
2019-04-01T07:28:31.351Z,83.52
2019-04-01T07:29:41.317Z,83.05
2019-04-01T07:30:51.029Z,82.57
2019-04-01T07:32:01.028Z,82.48
2019-04-01T07:33:10.767Z,82.76
2019-04-01T07:34:20.486Z,82.39
2019-04-01T07:35:30.184Z,81.44
2019-04-01T07:36:40.393Z,81.1
2019-04-01T07:37:50.103Z,80.82
2019-04-01T07:39:00.279Z,80.82
2019-04-01T07:40:13.607Z,79.87
2019-04-01T07:41:23.847Z,79.39
2019-04-01T07:42:33.798Z,79.3
2019-04-01T07:43:43.772Z,79.39
2019-04-01T07:44:53.710Z,79.39
2019-04-01T07:46:03.665Z,78.54
2019-04-01T07:47:15.605Z,77.31
2019-04-01T07:48:25.573Z,77.31
2019-04-01T07:49:35.614Z,76.84
2019-04-01T07:50:45.460Z,76.27
2019-04-01T07:51:55.022Z,75.42
2019-04-01T07:53:04.969Z,74.95
2019-04-01T07:54:18.200Z,74.56
2019-04-01T07:55:29.240Z,74.6
2019-04-01T07:56:39.358Z,74.41
2019-04-01T07:57:48.811Z,74.79
2019-04-01T07:59:02.535Z,73.75
2019-04-01T08:00:12.235Z,72.8
2019-04-01T08:01:22.195Z,72.14
2019-04-01T08:02:31.916Z,71.47
2019-04-01T08:03:44.442Z,71.47
2019-04-01T08:04:54.376Z,71.19
2019-04-01T08:06:03.566Z,69.96
2019-04-01T08:07:15.839Z,69.48
2019-04-01T08:08:25.824Z,68.91
2019-04-01T08:09:35.532Z,69.2
2019-04-01T08:10:45.501Z,69.2
2019-04-01T08:11:55.459Z,69.01
2019-04-01T08:13:05.157Z,69.38
2019-04-01T08:14:15.128Z,69.38
2019-04-01T08:15:25.105Z,68.06
2019-04-01T08:16:34.808Z,67.71
2019-04-01T08:17:44.833Z,67.52
2019-04-01T08:18:54.873Z,67.52
2019-04-01T08:20:04.590Z,67.43
2019-04-01T08:21:14.339Z,67.81
2019-04-01T08:22:24.296Z,68.19
2019-04-01T08:23:34.257Z,68.38
2019-04-01T08:24:44.060Z,68.19
2019-04-01T08:25:54.042Z,67.71
2019-04-01T08:27:03.539Z,67.81
2019-04-01T08:28:15.015Z,67.52
2019-04-01T08:29:32.866Z,67.14
2019-04-01T08:30:42.831Z,66.1
2019-04-01T08:31:52.781Z,65.63
2019-04-01T08:33:02.493Z,66.2
2019-04-01T08:34:12.516Z,65.63
2019-04-01T08:35:22.464Z,65.25
2019-04-01T08:36:32.173Z,64.81
2019-04-01T08:37:43.028Z,64.81
2019-04-01T08:38:55.394Z,64.81
2019-04-01T08:40:05.228Z,64.52
2019-04-01T08:41:14.910Z,64.24
2019-04-01T08:42:24.873Z,64.81
2019-04-01T08:43:34.579Z,64.71
2019-04-01T08:44:44.259Z,63.51
2019-04-01T08:45:53.709Z,61.07
2019-04-01T08:47:03.155Z,60.22
2019-04-01T08:48:13.117Z,58.16
2019-04-01T08:49:23.047Z,56.45
2019-04-01T08:50:33.013Z,56
2019-04-01T08:51:42.738Z,54.89
2019-04-01T08:52:52.708Z,54.79
2019-04-01T08:54:02.973Z,53.01
2019-04-01T08:55:12.942Z,52.72
2019-04-01T08:56:22.923Z,51.89
2019-04-01T08:57:32.897Z,50.85
2019-04-01T08:58:42.839Z,50.68
2019-04-01T08:59:56.051Z,50.01
2019-04-01T09:01:06.314Z,48.13
2019-04-01T09:02:20.842Z,47.39
2019-04-01T09:03:30.884Z,45.7
2019-04-01T09:04:40.339Z,45.99
2019-04-01T09:05:50.146Z,45.03
2019-04-01T09:07:00.589Z,44.84
2019-04-01T09:08:10.542Z,44.96
2019-04-01T09:09:20.513Z,43.62
2019-04-01T09:10:30.232Z,42.97
2019-04-01T09:11:41.053Z,42.4
2019-04-01T09:12:50.995Z,42.14
2019-04-01T09:14:00.947Z,42.24
2019-04-01T09:15:10.517Z,41.28
2019-04-01T09:16:20.250Z,40.8
2019-04-01T09:17:30.207Z,40.34
2019-04-01T09:18:43.326Z,39.86
2019-04-01T09:19:53.034Z,39.65
2019-04-01T09:21:03.281Z,38.62
2019-04-01T09:22:12.978Z,38.05
2019-04-01T09:23:22.924Z,38.53
2019-04-01T09:24:32.925Z,38.89
2019-04-01T09:25:42.889Z,38.53
2019-04-01T09:26:52.594Z,38.62
2019-04-01T09:28:02.548Z,37.66
2019-04-01T09:29:12.498Z,37.57
2019-04-01T09:30:22.451Z,37.57
2019-04-01T09:31:32.153Z,37.48
2019-04-01T09:32:42.199Z,37.57
2019-04-01T09:33:51.638Z,37.38
2019-04-01T09:35:01.442Z,37.02
2019-04-01T09:36:11.400Z,36.73
2019-04-01T09:37:21.130Z,37.21
2019-04-01T09:38:30.597Z,36.75
2019-04-01T09:39:40.061Z,35.69
2019-04-01T09:40:50.030Z,35.31
2019-04-01T09:41:59.745Z,35.69
2019-04-01T09:43:09.458Z,36.65
2019-04-01T09:44:30.352Z,35.61
2019-04-01T09:45:46.030Z,34.08
2019-04-01T09:46:56.020Z,34.29
2019-04-01T09:48:05.734Z,34.67
2019-04-01T09:49:15.698Z,34.75
2019-04-01T09:50:25.655Z,34.18
2019-04-01T09:51:50.269Z,34.36
2019-04-01T09:53:00.739Z,34.75
2019-04-01T09:54:09.964Z,33.8
2019-04-01T09:55:19.381Z,33.61
2019-04-01T09:56:28.777Z,33.32
2019-04-01T09:57:38.550Z,33.72
2019-04-01T09:58:48.661Z,33.24
2019-04-01T09:59:58.199Z,32.28
2019-04-01T10:01:07.701Z,32.86
2019-04-01T10:02:30.739Z,32.95
2019-04-01T10:03:40.911Z,32.78
2019-04-01T10:04:50.391Z,32.18
2019-04-01T10:05:59.795Z,32.49
2019-04-01T10:07:12.592Z,31.93
2019-04-01T10:08:22.371Z,31.27
2019-04-01T10:09:49.426Z,30.32
2019-04-01T10:10:58.828Z,29.83
2019-04-01T10:12:08.484Z,30.6
2019-04-01T10:13:17.754Z,30.51
2019-04-01T10:14:27.556Z,30.49
2019-04-01T10:15:37.913Z,30.3
2019-04-01T10:16:47.082Z,30.78
2019-04-01T10:17:56.677Z,30.22
2019-04-01T10:19:06.806Z,29.93
2019-04-01T10:20:16.522Z,29.55
2019-04-01T10:21:26.204Z,28.78
2019-04-01T10:22:35.352Z,29.08
2019-04-01T10:23:45.181Z,28.6
2019-04-01T10:24:54.848Z,28.7
2019-04-01T10:26:04.441Z,27.84
2019-04-01T10:27:14.730Z,28.81
2019-04-01T10:28:24.620Z,28.33
2019-04-01T10:29:37.223Z,27.84
2019-04-01T10:30:47.096Z,27.94
2019-04-01T10:31:56.579Z,27.75
2019-04-01T10:33:06.481Z,26.7
2019-04-01T10:34:15.888Z,26.49
2019-04-01T10:35:25.845Z,26.1
2019-04-01T10:36:35.811Z,26.49
2019-04-01T10:37:45.784Z,26.39
2019-04-01T10:38:55.236Z,26.95
2019-04-01T10:40:05.184Z,26.87
2019-04-01T10:41:14.895Z,26.68
2019-04-01T10:42:24.896Z,26.79
2019-04-01T10:43:34.371Z,25.93
2019-04-01T10:44:44.086Z,26.12
2019-04-01T10:45:53.876Z,25.83
2019-04-01T10:47:03.967Z,25.45
2019-04-01T10:48:14.016Z,25.74
2019-04-01T10:49:24.407Z,25.94
2019-04-01T10:50:37.593Z,25.67
2019-04-01T10:51:47.761Z,26.13
2019-04-01T10:52:58.005Z,26.51
2019-04-01T10:54:08.132Z,26.32
2019-04-01T10:55:18.043Z,26.71
2019-04-01T10:56:28.245Z,26.31
2019-04-01T10:57:43.397Z,26.4
2019-04-01T10:58:56.984Z,25.17
2019-04-01T11:00:06.812Z,25.36
2019-04-01T11:01:17.285Z,25.56
2019-04-01T11:02:27.367Z,25.46
2019-04-01T11:03:37.408Z,24.79
2019-04-01T11:04:47.490Z,25.56
2019-04-01T11:05:57.077Z,25.65
2019-04-01T11:07:06.988Z,25.84
2019-04-01T11:08:17.464Z,25.56
2019-04-01T11:09:40.612Z,26.62
2019-04-01T11:10:50.205Z,25.29
2019-04-01T11:11:59.598Z,25.29
2019-04-01T11:13:09.236Z,25.21
2019-04-01T11:14:18.324Z,24.82
2019-04-01T11:15:27.718Z,25.4
2019-04-01T11:16:37.658Z,25.39
2019-04-01T11:17:51.982Z,25.67
2019-04-01T11:19:02.244Z,25.48
2019-04-01T11:20:13.248Z,25.29
2019-04-01T11:21:23.204Z,25.78
2019-04-01T11:22:34.294Z,26.06
2019-04-01T11:23:44.267Z,25.78
2019-04-01T11:24:53.993Z,25.96
2019-04-01T11:26:03.695Z,25.58
2019-04-01T11:27:14.016Z,25.48
2019-04-01T11:28:24.003Z,25.11
2019-04-01T11:29:33.695Z,24.24
2019-04-01T11:30:43.733Z,24.05
2019-04-01T11:31:53.575Z,24.54
2019-04-01T11:33:03.402Z,24.71
2019-04-01T11:34:15.542Z,25.39
2019-04-01T11:35:27.030Z,24.91
2019-04-01T11:36:36.981Z,25.58
2019-04-01T11:37:48.436Z,25.39
2019-04-01T11:38:58.606Z,24.91
2019-04-01T11:40:13.760Z,24.91
2019-04-01T11:41:24.009Z,24.82
2019-04-01T11:42:34.155Z,25.51
2019-04-01T11:43:48.141Z,25.22
2019-04-01T11:44:58.040Z,25.32
2019-04-01T11:46:14.978Z,24.93
2019-04-01T11:47:26.402Z,24.82
2019-04-01T11:48:36.379Z,24.92
2019-04-01T11:49:46.599Z,24.82
2019-04-01T11:50:56.768Z,25.31
2019-04-01T11:52:07.126Z,23.77
2019-04-01T11:53:20.775Z,23.67
2019-04-01T11:54:30.731Z,23.09
2019-04-01T11:55:41.440Z,23.38
2019-04-01T11:56:51.515Z,23.3
2019-04-01T11:58:01.485Z,23.78
2019-04-01T11:59:12.280Z,24.56
2019-04-01T12:00:21.997Z,23.88
2019-04-01T12:01:36.605Z,24.37
2019-04-01T12:02:46.661Z,23.88
2019-04-01T12:03:56.685Z,24.46
2019-04-01T12:05:06.684Z,23.88
2019-04-01T12:06:16.428Z,23.98
2019-04-01T12:07:26.266Z,24.27
2019-04-01T12:08:35.979Z,23.99
2019-04-01T12:09:45.944Z,23.9
2019-04-01T12:10:58.895Z,23.43
2019-04-01T12:12:22.600Z,23.91
2019-04-01T12:13:34.796Z,23.33
2019-04-01T12:14:44.268Z,23.72
2019-04-01T12:15:54.243Z,23.33
2019-04-01T12:17:04.205Z,23.9
2019-04-01T12:18:14.217Z,23.32
2019-04-01T12:19:24.170Z,23.91
2019-04-01T12:20:34.139Z,23.91
2019-04-01T12:21:44.097Z,23.05
2019-04-01T12:22:53.803Z,23.15
2019-04-01T12:24:03.772Z,22.96
2019-04-01T12:25:14.573Z,23.62
2019-04-01T12:26:24.541Z,23.8
2019-04-01T12:27:34.242Z,23.13
2019-04-01T12:28:43.974Z,23.99
2019-04-01T12:29:53.948Z,23.81
2019-04-01T12:31:03.946Z,23.81
2019-04-01T12:32:15.760Z,23.04
2019-04-01T12:33:28.685Z,22.86
2019-04-01T12:34:42.018Z,23.15
2019-04-01T12:35:52.481Z,22.96
2019-04-01T12:37:01.948Z,23.24
2019-04-01T12:38:11.715Z,23.15
2019-04-01T12:39:21.714Z,23.14
2019-04-01T12:40:31.679Z,24.19
2019-04-01T12:41:41.477Z,24.19
2019-04-01T12:42:53.387Z,23.71
2019-04-01T12:44:03.091Z,23.32
2019-04-01T12:45:14.089Z,23.91
2019-04-01T12:46:24.058Z,23.8
2019-04-01T12:47:33.777Z,23.8
2019-04-01T12:48:45.939Z,23.8
2019-04-01T12:49:55.902Z,23.32
2019-04-01T12:51:05.622Z,23.99
2019-04-01T12:52:15.593Z,23.52
2019-04-01T12:53:26.028Z,23.91
2019-04-01T12:54:35.483Z,24.2
2019-04-01T12:55:47.428Z,23.05
2019-04-01T12:56:57.139Z,23.61
2019-04-01T12:58:06.850Z,23.9
2019-04-01T12:59:20.304Z,23.71
2019-04-01T13:00:31.816Z,23.8
2019-04-01T13:01:41.525Z,24.19
2019-04-01T13:02:52.341Z,24.28
2019-04-01T13:04:04.164Z,23.81
2019-04-01T13:05:14.106Z,23.72
2019-04-01T13:06:25.586Z,23.33
2019-04-01T13:07:35.537Z,23.91
2019-04-01T13:08:45.015Z,23.62
2019-04-01T13:09:56.518Z,23.62
2019-04-01T13:11:06.513Z,23.33
2019-04-01T13:12:17.765Z,23.14
2019-04-01T13:13:30.280Z,23.04
2019-04-01T13:14:42.663Z,23.91
2019-04-01T13:15:53.161Z,23.52
2019-04-01T13:17:03.136Z,23.52
2019-04-01T13:18:12.843Z,23.62
2019-04-01T13:19:24.143Z,23.99
2019-04-01T13:20:41.927Z,23.71
2019-04-01T13:21:54.739Z,23.8
2019-04-01T13:23:04.467Z,24.09
2019-04-01T13:24:14.439Z,24.28
2019-04-01T13:25:24.401Z,23.71
2019-04-01T13:26:34.357Z,23.9
2019-04-01T13:27:44.060Z,23.72
2019-04-01T13:28:54.910Z,24.1
2019-04-01T13:30:04.799Z,23.44
2019-04-01T13:31:14.778Z,23.82
2019-04-01T13:32:24.767Z,23.91
2019-04-01T13:33:34.736Z,24.11
2019-04-01T13:34:44.474Z,23.81
2019-04-01T13:35:55.558Z,23.9
2019-04-01T13:37:05.023Z,23.91
2019-04-01T13:38:15.223Z,24.01
2019-04-01T13:39:25.359Z,23.91
2019-04-01T13:40:35.333Z,24.77
2019-04-01T13:41:47.826Z,24.1
2019-04-01T13:43:04.280Z,23.72
2019-04-01T13:44:15.657Z,24.86
2019-04-01T13:45:39.107Z,24.76
2019-04-01T13:46:51.064Z,24.48
2019-04-01T13:48:03.610Z,24.09
2019-04-01T13:49:13.584Z,23.99
2019-04-01T13:50:23.066Z,24.38
2019-04-01T13:51:33.019Z,24.56
2019-04-01T13:52:46.446Z,24.38
2019-04-01T13:54:11.503Z,24.38
2019-04-01T13:55:21.350Z,24.09
2019-04-01T13:56:31.319Z,24.38
2019-04-01T13:57:41.880Z,24.37
2019-04-01T13:58:51.989Z,24.27
2019-04-01T14:00:01.715Z,24.18
2019-04-01T14:01:11.705Z,24.85
2019-04-01T14:02:21.429Z,24.09
2019-04-01T14:03:36.045Z,23.8
2019-04-01T14:04:46.008Z,23.51
2019-04-01T14:05:56.517Z,23.81
2019-04-01T14:07:06.469Z,23.33
2019-04-01T14:08:16.443Z,23.22
2019-04-01T14:09:30.660Z,23.13
2019-04-01T14:10:42.986Z,23.51
2019-04-01T14:11:52.716Z,23.71
2019-04-01T14:13:02.780Z,23.61
2019-04-01T14:14:12.498Z,23.61
2019-04-01T14:15:22.346Z,23.32
2019-04-01T14:16:32.064Z,23.22
2019-04-01T14:17:44.430Z,23.9
2019-04-01T14:18:54.398Z,23.41
2019-04-01T14:20:04.113Z,23.51
2019-04-01T14:21:21.146Z,23.41
2019-04-01T14:22:31.382Z,23.13
2019-04-01T14:23:41.359Z,23.32
2019-04-01T14:24:52.185Z,23.41
2019-04-01T14:26:02.167Z,23.9
2019-04-01T14:27:12.561Z,23.51
2019-04-01T14:28:22.269Z,24.19
2019-04-01T14:29:32.236Z,23.9
2019-04-01T14:30:43.329Z,24.37
2019-04-01T14:31:53.067Z,23.8
2019-04-01T14:33:03.106Z,23.9
2019-04-01T14:34:24.721Z,24.18
2019-04-01T14:35:35.505Z,23.98
2019-04-01T14:36:48.049Z,24.37
2019-04-01T14:38:00.689Z,24.84
2019-04-01T14:39:10.412Z,24.07
2019-04-01T14:40:20.378Z,24.15
2019-04-01T14:41:30.351Z,25.21
2019-04-01T14:42:42.007Z,24.84
2019-04-01T14:43:57.639Z,24.26
2019-04-01T14:45:08.365Z,24.35
2019-04-01T14:46:18.325Z,24.35
2019-04-01T14:47:27.795Z,24.15
2019-04-01T14:48:38.122Z,24.34
2019-04-01T14:49:48.114Z,24.92
2019-04-01T14:50:58.088Z,25.2
2019-04-01T14:52:08.056Z,24.71
2019-04-01T14:53:34.135Z,25.01
2019-04-01T14:54:44.773Z,24.62
2019-04-01T14:55:58.962Z,24.71
2019-04-01T14:57:08.843Z,24.43
2019-04-01T14:58:18.803Z,24.43
2019-04-01T14:59:29.241Z,25.29
2019-04-01T15:00:39.034Z,24.71
2019-04-01T15:01:48.996Z,24.44
2019-04-01T15:02:58.739Z,24.44
2019-04-01T15:04:08.480Z,24.44
2019-04-01T15:05:18.196Z,24.93
2019-04-01T15:06:28.325Z,24.26
2019-04-01T15:07:38.298Z,24.15
2019-04-01T15:08:49.796Z,23.77
2019-04-01T15:09:59.772Z,23.57